createdAt,value
2022-11-16T00:03:35.586Z,12.10
2022-11-16T00:08:41.087Z,12.13
2022-11-16T00:13:43.533Z,12.18
2022-11-16T00:18:45.274Z,12.16
2022-11-16T00:23:46.698Z,12.17
2022-11-16T00:28:48.546Z,12.11
2022-11-16T00:33:50.787Z,12.13
2022-11-16T00:38:53.858Z,12.19
2022-11-16T00:43:55.524Z,12.26
2022-11-16T00:48:56.979Z,12.25
2022-11-16T00:53:58.394Z,12.31
2022-11-16T00:59:00.094Z,12.24
2022-11-16T01:04:01.606Z,12.26
2022-11-16T01:09:03.254Z,12.30
2022-11-16T01:14:07.969Z,12.27
2022-11-16T01:19:09.693Z,12.30
2022-11-16T01:24:11.702Z,12.35
2022-11-16T01:29:13.315Z,12.41
2022-11-16T01:34:19.606Z,12.43
2022-11-16T01:39:21.228Z,12.36
2022-11-16T01:44:33.677Z,12.35
2022-11-16T01:49:51.794Z,12.33
2022-11-16T01:54:56.695Z,12.38
2022-11-16T02:00:03.662Z,12.41
2022-11-16T02:05:22.069Z,12.36
2022-11-16T02:10:41.243Z,12.29
2022-11-16T02:15:49.222Z,12.29
2022-11-16T02:21:13.973Z,12.30
2022-11-16T02:26:42.789Z,12.32
2022-11-16T02:32:14.795Z,12.31
2022-11-16T02:37:19.889Z,12.40
2022-11-16T02:42:30.063Z,12.35
2022-11-16T02:47:34.982Z,12.44
2022-11-16T02:52:38.958Z,12.35
2022-11-16T02:57:49.357Z,12.41
2022-11-16T03:03:01.132Z,12.46
2022-11-16T03:08:34.317Z,12.47
2022-11-16T03:13:40.751Z,12.44
2022-11-16T03:18:46.839Z,12.42
2022-11-16T03:23:49.675Z,12.36
2022-11-16T03:29:33.298Z,12.37
2022-11-16T03:34:47.563Z,12.33
2022-11-16T03:39:52.219Z,12.32
2022-11-16T03:44:55.045Z,12.33
2022-11-16T03:49:56.594Z,12.22
2022-11-16T03:54:59.078Z,12.24
2022-11-16T04:00:01.553Z,12.32
2022-11-16T04:05:23.255Z,12.35
2022-11-16T04:10:43.468Z,12.35
2022-11-16T04:16:03.587Z,12.36
2022-11-16T04:21:23.941Z,12.31
2022-11-16T04:26:45.992Z,12.32
2022-11-16T04:32:05.926Z,12.21
2022-11-16T04:37:36.393Z,12.27
2022-11-16T04:42:39.077Z,12.27
2022-11-16T04:47:41.008Z,12.22
2022-11-16T04:52:43.026Z,12.20
2022-11-16T04:57:47.040Z,12.23
2022-11-16T05:02:49.340Z,12.23
2022-11-16T05:07:51.244Z,12.12
2022-11-16T05:12:58.549Z,12.20
2022-11-16T05:18:01.742Z,12.17
2022-11-16T05:23:04.997Z,12.19
2022-11-16T05:28:10.026Z,12.21
2022-11-16T05:33:16.396Z,12.19
2022-11-16T05:38:19.270Z,12.16
2022-11-16T05:43:24.221Z,12.23
2022-11-16T05:48:34.454Z,12.22
2022-11-16T05:53:37.035Z,12.03
2022-11-16T05:58:40.175Z,11.99
2022-11-16T06:03:41.751Z,11.83
2022-11-16T06:08:43.327Z,11.86
2022-11-16T06:13:49.513Z,11.76
2022-11-16T06:18:51.628Z,11.65
2022-11-16T06:23:54.138Z,11.71
2022-11-16T06:28:55.706Z,11.62
2022-11-16T06:33:58.186Z,11.61
2022-11-16T06:39:02.035Z,11.46
2022-11-16T06:44:05.964Z,11.43
2022-11-16T06:49:11.389Z,11.25
2022-11-16T06:54:13.217Z,11.28
2022-11-16T06:59:15.846Z,11.26
2022-11-16T07:04:18.159Z,11.21
2022-11-16T07:09:25.638Z,11.19
2022-11-16T07:14:27.266Z,11.20
2022-11-16T07:19:28.827Z,11.08
2022-11-16T07:24:30.930Z,11.07
2022-11-16T07:29:32.599Z,10.99
2022-11-16T07:34:52.763Z,11.04
2022-11-16T07:39:55.005Z,10.97
2022-11-16T07:44:58.119Z,11.00
2022-11-16T07:49:59.816Z,10.91
2022-11-16T07:55:02.860Z,11.01
2022-11-16T08:00:06.410Z,10.96
2022-11-16T08:05:22.980Z,10.90
2022-11-16T08:10:25.760Z,11.06
2022-11-16T08:15:28.833Z,11.08
2022-11-16T08:20:32.834Z,11.20
2022-11-16T08:25:34.452Z,11.22
2022-11-16T08:30:39.385Z,11.21
2022-11-16T08:35:41.920Z,11.20
2022-11-16T08:40:43.466Z,11.18
2022-11-16T08:45:49.310Z,11.36
2022-11-16T08:51:15.880Z,11.57
2022-11-16T08:56:17.029Z,11.71
2022-11-16T09:01:21.460Z,11.61
2022-11-16T09:06:24.665Z,11.69
2022-11-16T09:11:26.391Z,11.77
2022-11-16T09:16:28.699Z,11.97
2022-11-16T09:21:30.470Z,11.90
2022-11-16T09:26:31.930Z,11.93
2022-11-16T09:31:37.318Z,12.17
2022-11-16T09:36:38.822Z,12.16
2022-11-16T09:41:55.525Z,12.13
2022-11-16T09:46:59.872Z,12.22
2022-11-16T09:52:10.697Z,12.26
2022-11-16T09:57:17.378Z,12.30
2022-11-16T10:02:22.218Z,12.44
2022-11-16T10:07:31.415Z,12.59
2022-11-16T10:12:50.688Z,12.69
2022-11-16T10:17:58.342Z,12.65
2022-11-16T10:23:34.086Z,12.77
2022-11-16T10:29:00.577Z,12.84
2022-11-16T10:34:06.828Z,12.86
2022-11-16T10:39:14.071Z,12.98
2022-11-16T10:44:32.700Z,12.98
2022-11-16T10:49:53.528Z,13.23
2022-11-16T10:54:55.036Z,13.15
2022-11-16T10:59:57.071Z,13.21
2022-11-16T11:05:20.027Z,13.31
2022-11-16T11:10:33.666Z,13.39
2022-11-16T11:15:35.190Z,13.29
2022-11-16T11:20:44.289Z,13.46
2022-11-16T11:25:57.922Z,13.58
2022-11-16T11:31:02.636Z,13.63
2022-11-16T11:36:18.548Z,13.58
2022-11-16T11:41:20.608Z,13.63
2022-11-16T11:46:56.183Z,13.81
2022-11-16T11:51:56.435Z,13.96
2022-11-16T11:57:00.930Z,14.08
2022-11-16T12:02:19.591Z,13.94
2022-11-16T12:07:34.556Z,14.16
2022-11-16T12:13:05.818Z,14.02
2022-11-16T12:18:31.824Z,13.83
2022-11-16T12:23:57.496Z,13.86
2022-11-16T12:29:19.503Z,14.12
2022-11-16T12:34:49.679Z,14.10
2022-11-16T12:40:00.121Z,14.21
2022-11-16T12:45:32.543Z,14.49
2022-11-16T12:50:43.740Z,14.63
2022-11-16T12:56:17.239Z,14.58
2022-11-16T13:01:31.118Z,14.65
2022-11-16T13:06:44.182Z,14.66
2022-11-16T13:11:58.301Z,14.51
2022-11-16T13:17:01.777Z,14.60
2022-11-16T13:22:22.696Z,14.49
2022-11-16T13:27:51.024Z,14.22
2022-11-16T13:33:22.279Z,14.28
2022-11-16T13:38:49.500Z,14.04
2022-11-16T13:43:50.995Z,14.00
2022-11-16T13:48:53.199Z,14.00
2022-11-16T13:59:22.846Z,14.10
2022-11-16T14:04:58.091Z,14.01
2022-11-16T14:09:59.925Z,14.08
2022-11-16T14:15:20.798Z,14.09
2022-11-16T14:20:31.529Z,13.91
2022-11-16T14:25:41.995Z,13.88
2022-11-16T14:31:07.639Z,13.88
2022-11-16T14:36:10.554Z,13.72
2022-11-16T14:41:21.027Z,13.52
2022-11-16T14:46:26.256Z,13.48
2022-11-16T14:51:58.758Z,13.30
2022-11-16T14:57:02.650Z,13.29
2022-11-16T15:02:25.203Z,13.13
2022-11-16T15:07:29.603Z,13.10
2022-11-16T15:12:44.208Z,13.03
2022-11-16T15:17:52.048Z,13.07
2022-11-16T15:22:56.589Z,12.88
2022-11-16T15:28:00.342Z,12.83
2022-11-16T15:33:07.834Z,12.77
2022-11-16T15:38:22.354Z,12.54
2022-11-16T15:43:30.551Z,12.47
2022-11-16T15:48:33.566Z,12.41
2022-11-16T15:53:38.134Z,12.28
2022-11-16T15:58:42.085Z,12.24
2022-11-16T16:04:05.497Z,12.29
2022-11-16T16:09:07.027Z,12.17
2022-11-16T16:14:10.681Z,12.14
2022-11-16T16:19:30.225Z,12.10
2022-11-16T16:24:47.232Z,12.15
2022-11-16T16:29:51.115Z,11.89
2022-11-16T16:34:54.838Z,11.87
2022-11-16T16:39:57.080Z,11.83
2022-11-16T16:45:00.054Z,11.89
2022-11-16T16:50:01.624Z,11.86
2022-11-16T16:55:03.390Z,11.79
2022-11-16T17:00:05.362Z,11.77
2022-11-16T17:05:07.322Z,11.83
2022-11-16T17:10:09.166Z,11.71
2022-11-16T17:15:15.068Z,11.64
2022-11-16T17:20:19.533Z,11.66
2022-11-16T17:25:21.011Z,11.66
2022-11-16T17:30:22.430Z,11.66
2022-11-16T17:35:23.952Z,11.74
2022-11-16T17:40:25.410Z,11.64
2022-11-16T17:45:27.411Z,11.70
2022-11-16T17:50:28.837Z,11.59
2022-11-16T17:55:30.343Z,11.54
2022-11-16T18:00:31.800Z,11.46
2022-11-16T18:05:33.302Z,11.40
2022-11-16T18:10:38.658Z,11.38
2022-11-16T18:15:42.611Z,11.32
2022-11-16T18:20:44.474Z,11.19
2022-11-16T18:25:46.027Z,11.09
2022-11-16T18:30:47.665Z,11.02
2022-11-16T18:35:49.135Z,11.21
2022-11-16T18:41:22.577Z,11.13
2022-11-16T18:46:29.093Z,11.18
2022-11-16T18:51:31.095Z,11.08
2022-11-16T18:56:32.666Z,11.19
2022-11-16T19:01:34.248Z,11.24
2022-11-16T19:06:35.675Z,11.23
2022-11-16T19:11:37.388Z,11.32
2022-11-16T19:16:43.380Z,11.29
2022-11-16T19:21:52.478Z,11.17
2022-11-16T19:26:53.891Z,11.26
2022-11-16T19:31:55.307Z,11.35
2022-11-16T19:36:56.710Z,11.35
2022-11-16T19:41:58.213Z,11.27
2022-11-16T19:46:59.851Z,11.42
2022-11-16T19:52:01.344Z,11.43
2022-11-16T19:57:02.879Z,11.42
2022-11-16T20:02:04.773Z,11.31
2022-11-16T20:07:07.448Z,11.33
2022-11-16T20:12:09.010Z,11.23
2022-11-16T20:17:11.501Z,11.27
2022-11-16T20:22:13.089Z,11.25
2022-11-16T20:27:14.523Z,11.23
2022-11-16T20:32:15.966Z,11.06
2022-11-16T20:37:17.475Z,11.04
2022-11-16T20:42:19.446Z,11.17
2022-11-16T20:47:21.050Z,11.23
2022-11-16T20:52:22.550Z,11.06
2022-11-16T20:57:23.947Z,11.18
2022-11-16T21:02:25.526Z,10.98
2022-11-16T21:07:27.183Z,11.06
2022-11-16T21:12:57.952Z,11.17
2022-11-16T21:17:59.969Z,11.09
2022-11-16T21:23:02.231Z,11.16
2022-11-16T21:28:03.882Z,11.18
2022-11-16T21:33:05.344Z,11.19
2022-11-16T21:38:06.776Z,11.23
2022-11-16T21:43:08.175Z,11.25
2022-11-16T21:48:09.867Z,11.11
2022-11-16T21:53:11.499Z,11.19
2022-11-16T21:58:12.970Z,11.15
2022-11-16T22:03:14.475Z,11.16
2022-11-16T22:08:15.973Z,11.04
2022-11-16T22:13:21.087Z,10.98
2022-11-16T22:18:22.559Z,10.89
2022-11-16T22:23:24.308Z,10.96
2022-11-16T22:28:26.076Z,10.85
2022-11-16T22:33:28.281Z,10.78
2022-11-16T22:38:30.092Z,10.81
2022-11-16T22:43:32.543Z,10.82
2022-11-16T22:48:39.391Z,10.77
2022-11-16T22:53:40.830Z,10.76
2022-11-16T22:58:42.306Z,10.79
2022-11-16T23:03:43.769Z,10.81
2022-11-16T23:08:45.377Z,10.76
2022-11-16T23:14:06.134Z,10.83
2022-11-16T23:19:28.363Z,10.79
2022-11-16T23:24:48.202Z,10.79
2022-11-16T23:29:49.637Z,10.65
2022-11-16T23:34:51.034Z,10.63
2022-11-16T23:39:52.489Z,10.60
2022-11-16T23:44:54.018Z,10.66
2022-11-16T23:49:55.427Z,10.66
2022-11-16T23:54:56.862Z,10.66
2022-11-16T23:59:58.272Z,10.84
